sensor_id;sensor_type;location;lat;lon;timestamp;temperature;humidity
13375;DHT22;6756;51.354;15.754;2023-03-23T00:00:54;11.20;99.90
13375;DHT22;6756;51.354;15.754;2023-03-23T00:04:55;11.30;99.90
13375;DHT22;6756;51.354;15.754;2023-03-23T00:08:56;11.30;99.90
13375;DHT22;6756;51.354;15.754;2023-03-23T00:12:59;11.30;99.90
13375;DHT22;6756;51.354;15.754;2023-03-23T00:17:02;11.30;99.90
13375;DHT22;6756;51.354;15.754;2023-03-23T00:21:04;11.30;99.90
13375;DHT22;6756;51.354;15.754;2023-03-23T00:25:05;11.40;99.90
13375;DHT22;6756;51.354;15.754;2023-03-23T00:29:21;11.40;99.90
13375;DHT22;6756;51.354;15.754;2023-03-23T00:33:29;11.40;99.90
13375;DHT22;6756;51.354;15.754;2023-03-23T00:37:33;11.40;99.90
13375;DHT22;6756;51.354;15.754;2023-03-23T00:41:35;11.40;99.90
13375;DHT22;6756;51.354;15.754;2023-03-23T00:45:37;11.30;99.90
13375;DHT22;6756;51.354;15.754;2023-03-23T00:49:38;11.20;99.90
13375;DHT22;6756;51.354;15.754;2023-03-23T00:53:40;11.10;99.90
13375;DHT22;6756;51.354;15.754;2023-03-23T00:57:41;11.00;99.90
13375;DHT22;6756;51.354;15.754;2023-03-23T01:01:42;11.00;99.90
13375;DHT22;6756;51.354;15.754;2023-03-23T01:05:42;11.00;99.90
13375;DHT22;6756;51.354;15.754;2023-03-23T01:09:43;11.00;99.90
13375;DHT22;6756;51.354;15.754;2023-03-23T01:13:45;11.00;99.90
13375;DHT22;6756;51.354;15.754;2023-03-23T01:17:46;11.00;99.90
13375;DHT22;6756;51.354;15.754;2023-03-23T01:21:47;11.10;99.90
13375;DHT22;6756;51.354;15.754;2023-03-23T01:25:47;11.10;99.90
13375;DHT22;6756;51.354;15.754;2023-03-23T01:29:49;11.20;99.90
13375;DHT22;6756;51.354;15.754;2023-03-23T01:33:51;11.20;99.90
13375;DHT22;6756;51.354;15.754;2023-03-23T01:37:53;11.30;99.90
13375;DHT22;6756;51.354;15.754;2023-03-23T01:41:54;11.30;99.90
13375;DHT22;6756;51.354;15.754;2023-03-23T01:45:55;11.40;99.90
13375;DHT22;6756;51.354;15.754;2023-03-23T01:49:56;11.40;99.90
13375;DHT22;6756;51.354;15.754;2023-03-23T01:54:00;11.40;99.90
13375;DHT22;6756;51.354;15.754;2023-03-23T01:58:02;11.50;99.90
13375;DHT22;6756;51.354;15.754;2023-03-23T02:02:03;11.50;99.90
13375;DHT22;6756;51.354;15.754;2023-03-23T02:06:05;11.50;99.90
13375;DHT22;6756;51.354;15.754;2023-03-23T02:10:06;11.50;99.90
13375;DHT22;6756;51.354;15.754;2023-03-23T02:14:08;11.50;99.90
13375;DHT22;6756;51.354;15.754;2023-03-23T02:22:39;11.40;99.90
13375;DHT22;6756;51.354;15.754;2023-03-23T02:27:11;11.30;99.90
13375;DHT22;6756;51.354;15.754;2023-03-23T02:31:40;11.30;99.90
13375;DHT22;6756;51.354;15.754;2023-03-23T02:36:14;11.20;99.90
13375;DHT22;6756;51.354;15.754;2023-03-23T02:40:40;11.20;99.90
13375;DHT22;6756;51.354;15.754;2023-03-23T02:44:44;11.20;99.90
13375;DHT22;6756;51.354;15.754;2023-03-23T02:48:47;11.10;99.90
13375;DHT22;6756;51.354;15.754;2023-03-23T02:52:52;11.00;99.90
13375;DHT22;6756;51.354;15.754;2023-03-23T02:56:56;10.90;99.90
13375;DHT22;6756;51.354;15.754;2023-03-23T03:00:58;10.90;99.90
13375;DHT22;6756;51.354;15.754;2023-03-23T03:05:01;10.80;99.90
13375;DHT22;6756;51.354;15.754;2023-03-23T03:18:21;10.90;99.90
13375;DHT22;6756;51.354;15.754;2023-03-23T03:22:23;11.00;99.90
13375;DHT22;6756;51.354;15.754;2023-03-23T03:26:25;11.10;99.90
13375;DHT22;6756;51.354;15.754;2023-03-23T03:30:30;11.20;99.90
13375;DHT22;6756;51.354;15.754;2023-03-23T03:34:33;11.20;99.90
13375;DHT22;6756;51.354;15.754;2023-03-23T03:38:45;11.20;99.90
13375;DHT22;6756;51.354;15.754;2023-03-23T03:42:47;11.20;99.90
13375;DHT22;6756;51.354;15.754;2023-03-23T03:46:48;11.20;99.90
13375;DHT22;6756;51.354;15.754;2023-03-23T03:50:49;11.20;99.90
13375;DHT22;6756;51.354;15.754;2023-03-23T03:54:52;11.20;99.90
13375;DHT22;6756;51.354;15.754;2023-03-23T03:58:53;11.10;99.90
13375;DHT22;6756;51.354;15.754;2023-03-23T04:02:54;11.10;99.90
13375;DHT22;6756;51.354;15.754;2023-03-23T04:06:55;11.10;99.90
13375;DHT22;6756;51.354;15.754;2023-03-23T04:10:57;11.10;99.90
13375;DHT22;6756;51.354;15.754;2023-03-23T04:14:59;11.10;99.90
13375;DHT22;6756;51.354;15.754;2023-03-23T04:19:01;11.10;99.90
13375;DHT22;6756;51.354;15.754;2023-03-23T04:23:01;11.00;99.90
13375;DHT22;6756;51.354;15.754;2023-03-23T04:27:02;11.10;99.90
13375;DHT22;6756;51.354;15.754;2023-03-23T04:31:03;11.00;99.90
13375;DHT22;6756;51.354;15.754;2023-03-23T04:35:04;11.00;99.90
13375;DHT22;6756;51.354;15.754;2023-03-23T04:39:07;11.00;99.90
13375;DHT22;6756;51.354;15.754;2023-03-23T04:43:10;11.00;99.90
13375;DHT22;6756;51.354;15.754;2023-03-23T04:47:13;11.10;99.90
13375;DHT22;6756;51.354;15.754;2023-03-23T04:51:17;11.10;99.90
13375;DHT22;6756;51.354;15.754;2023-03-23T04:55:19;11.10;99.90
13375;DHT22;6756;51.354;15.754;2023-03-23T04:59:20;11.10;99.90
13375;DHT22;6756;51.354;15.754;2023-03-23T05:03:21;11.10;99.90
13375;DHT22;6756;51.354;15.754;2023-03-23T05:07:23;11.10;99.90
13375;DHT22;6756;51.354;15.754;2023-03-23T05:11:24;11.10;99.90
13375;DHT22;6756;51.354;15.754;2023-03-23T05:15:24;11.10;99.90
13375;DHT22;6756;51.354;15.754;2023-03-23T05:19:25;11.00;99.90
13375;DHT22;6756;51.354;15.754;2023-03-23T05:23:26;11.00;99.90
13375;DHT22;6756;51.354;15.754;2023-03-23T05:27:27;10.90;99.90
13375;DHT22;6756;51.354;15.754;2023-03-23T05:31:30;10.90;99.90
13375;DHT22;6756;51.354;15.754;2023-03-23T05:35:32;10.90;99.90
13375;DHT22;6756;51.354;15.754;2023-03-23T05:39:33;11.10;99.90
13375;DHT22;6756;51.354;15.754;2023-03-23T05:43:34;11.20;99.90
13375;DHT22;6756;51.354;15.754;2023-03-23T05:47:36;11.40;99.90
13375;DHT22;6756;51.354;15.754;2023-03-23T05:51:36;11.50;99.90
13375;DHT22;6756;51.354;15.754;2023-03-23T05:55:37;11.60;99.90
13375;DHT22;6756;51.354;15.754;2023-03-23T05:59:38;11.70;99.90
13375;DHT22;6756;51.354;15.754;2023-03-23T06:03:39;11.90;99.90
13375;DHT22;6756;51.354;15.754;2023-03-23T06:07:40;12.00;99.90
13375;DHT22;6756;51.354;15.754;2023-03-23T06:11:41;12.20;99.90
13375;DHT22;6756;51.354;15.754;2023-03-23T06:15:41;12.40;99.90
13375;DHT22;6756;51.354;15.754;2023-03-23T06:19:43;12.50;99.90
13375;DHT22;6756;51.354;15.754;2023-03-23T06:23:46;12.60;99.90
13375;DHT22;6756;51.354;15.754;2023-03-23T06:27:48;12.70;99.90
13375;DHT22;6756;51.354;15.754;2023-03-23T06:31:54;12.80;99.90
13375;DHT22;6756;51.354;15.754;2023-03-23T06:35:56;12.90;99.90
13375;DHT22;6756;51.354;15.754;2023-03-23T06:39:58;13.00;99.90
13375;DHT22;6756;51.354;15.754;2023-03-23T06:43:59;13.20;92.10
13375;DHT22;6756;51.354;15.754;2023-03-23T06:48:01;13.40;76.70
13375;DHT22;6756;51.354;15.754;2023-03-23T06:52:02;13.60;65.00
13375;DHT22;6756;51.354;15.754;2023-03-23T06:56:04;13.90;60.30
13375;DHT22;6756;51.354;15.754;2023-03-23T07:00:05;14.20;45.60
13375;DHT22;6756;51.354;15.754;2023-03-23T07:04:08;14.60;23.20
13375;DHT22;6756;51.354;15.754;2023-03-23T07:08:09;14.90;16.70
13375;DHT22;6756;51.354;15.754;2023-03-23T07:12:10;15.30;11.00
13375;DHT22;6756;51.354;15.754;2023-03-23T07:16:10;15.50;1.00
13375;DHT22;6756;51.354;15.754;2023-03-23T07:20:12;15.60;1.00
13375;DHT22;6756;51.354;15.754;2023-03-23T07:24:13;15.60;1.00
13375;DHT22;6756;51.354;15.754;2023-03-23T07:28:14;15.50;1.00
13375;DHT22;6756;51.354;15.754;2023-03-23T07:32:16;15.40;1.00
13375;DHT22;6756;51.354;15.754;2023-03-23T07:36:17;15.40;1.00
13375;DHT22;6756;51.354;15.754;2023-03-23T07:40:18;15.50;1.00
13375;DHT22;6756;51.354;15.754;2023-03-23T07:44:19;15.90;1.00
13375;DHT22;6756;51.354;15.754;2023-03-23T07:48:20;16.10;1.00
13375;DHT22;6756;51.354;15.754;2023-03-23T07:52:20;16.20;1.00
13375;DHT22;6756;51.354;15.754;2023-03-23T07:56:21;16.40;1.00
13375;DHT22;6756;51.354;15.754;2023-03-23T08:00:23;16.50;1.00
13375;DHT22;6756;51.354;15.754;2023-03-23T08:04:24;16.70;1.00
13375;DHT22;6756;51.354;15.754;2023-03-23T08:08:25;16.80;1.00
13375;DHT22;6756;51.354;15.754;2023-03-23T08:12:26;16.90;1.00
13375;DHT22;6756;51.354;15.754;2023-03-23T08:16:27;16.80;1.00
13375;DHT22;6756;51.354;15.754;2023-03-23T08:20:28;16.80;1.00
13375;DHT22;6756;51.354;15.754;2023-03-23T08:24:30;16.70;1.00
13375;DHT22;6756;51.354;15.754;2023-03-23T08:28:31;16.90;1.00
13375;DHT22;6756;51.354;15.754;2023-03-23T08:32:31;17.20;1.00
13375;DHT22;6756;51.354;15.754;2023-03-23T08:36:33;17.40;1.00
13375;DHT22;6756;51.354;15.754;2023-03-23T08:40:34;17.40;1.00
13375;DHT22;6756;51.354;15.754;2023-03-23T08:44:36;17.10;1.00
13375;DHT22;6756;51.354;15.754;2023-03-23T08:48:37;16.90;1.00
13375;DHT22;6756;51.354;15.754;2023-03-23T08:52:38;16.90;1.00
13375;DHT22;6756;51.354;15.754;2023-03-23T08:56:39;17.00;1.00
13375;DHT22;6756;51.354;15.754;2023-03-23T09:00:41;17.20;1.00
13375;DHT22;6756;51.354;15.754;2023-03-23T09:04:42;17.20;1.00
13375;DHT22;6756;51.354;15.754;2023-03-23T09:08:43;17.40;1.00
13375;DHT22;6756;51.354;15.754;2023-03-23T09:12:46;17.50;1.00
13375;DHT22;6756;51.354;15.754;2023-03-23T09:16:47;17.70;1.00
13375;DHT22;6756;51.354;15.754;2023-03-23T09:20:50;18.00;1.00
13375;DHT22;6756;51.354;15.754;2023-03-23T09:24:51;18.40;1.00
13375;DHT22;6756;51.354;15.754;2023-03-23T09:28:52;18.70;1.00
13375;DHT22;6756;51.354;15.754;2023-03-23T09:32:53;18.70;1.00
13375;DHT22;6756;51.354;15.754;2023-03-23T09:36:54;18.80;1.00
13375;DHT22;6756;51.354;15.754;2023-03-23T09:49:59;17.90;1.00
13375;DHT22;6756;51.354;15.754;2023-03-23T09:58:53;18.20;1.00
13375;DHT22;6756;51.354;15.754;2023-03-23T10:03:10;17.90;1.00
13375;DHT22;6756;51.354;15.754;2023-03-23T10:07:18;17.80;1.00
13375;DHT22;6756;51.354;15.754;2023-03-23T10:16:08;17.70;1.00
13375;DHT22;6756;51.354;15.754;2023-03-23T10:24:54;18.20;1.00
13375;DHT22;6756;51.354;15.754;2023-03-23T10:29:08;18.40;1.00
13375;DHT22;6756;51.354;15.754;2023-03-23T10:33:29;18.30;1.00
13375;DHT22;6756;51.354;15.754;2023-03-23T10:37:35;18.20;1.00
13375;DHT22;6756;51.354;15.754;2023-03-23T10:41:37;17.60;1.00
13375;DHT22;6756;51.354;15.754;2023-03-23T10:45:38;17.10;1.00
13375;DHT22;6756;51.354;15.754;2023-03-23T10:49:50;16.80;1.00
13375;DHT22;6756;51.354;15.754;2023-03-23T10:53:58;16.90;1.00
13375;DHT22;6756;51.354;15.754;2023-03-23T10:58:08;16.90;1.00
13375;DHT22;6756;51.354;15.754;2023-03-23T11:02:16;16.80;1.00
13375;DHT22;6756;51.354;15.754;2023-03-23T11:06:29;16.90;1.00
13375;DHT22;6756;51.354;15.754;2023-03-23T11:10:41;17.20;1.00
13375;DHT22;6756;51.354;15.754;2023-03-23T11:14:42;17.50;1.00
13375;DHT22;6756;51.354;15.754;2023-03-23T11:18:44;17.80;1.00
13375;DHT22;6756;51.354;15.754;2023-03-23T11:22:47;18.20;1.00
13375;DHT22;6756;51.354;15.754;2023-03-23T11:26:48;18.30;1.00
13375;DHT22;6756;51.354;15.754;2023-03-23T11:30:53;18.50;1.00
13375;DHT22;6756;51.354;15.754;2023-03-23T11:35:16;18.00;1.00
13375;DHT22;6756;51.354;15.754;2023-03-23T11:39:27;17.80;1.00
13375;DHT22;6756;51.354;15.754;2023-03-23T11:43:28;18.30;1.00
13375;DHT22;6756;51.354;15.754;2023-03-23T11:47:36;18.20;1.00
13375;DHT22;6756;51.354;15.754;2023-03-23T11:51:47;18.60;1.00
13375;DHT22;6756;51.354;15.754;2023-03-23T11:59:51;18.20;1.00
13375;DHT22;6756;51.354;15.754;2023-03-23T12:04:23;18.10;1.00
13375;DHT22;6756;51.354;15.754;2023-03-23T12:16:59;18.70;1.00
13375;DHT22;6756;51.354;15.754;2023-03-23T12:21:23;19.10;1.00
13375;DHT22;6756;51.354;15.754;2023-03-23T12:30:35;19.20;1.00
13375;DHT22;6756;51.354;15.754;2023-03-23T12:35:02;19.20;1.00
13375;DHT22;6756;51.354;15.754;2023-03-23T12:43:58;19.70;1.00
13375;DHT22;6756;51.354;15.754;2023-03-23T12:48:04;19.50;1.00
13375;DHT22;6756;51.354;15.754;2023-03-23T12:52:19;19.30;1.00
13375;DHT22;6756;51.354;15.754;2023-03-23T12:56:33;19.30;1.00
13375;DHT22;6756;51.354;15.754;2023-03-23T13:05:11;18.70;1.00
13375;DHT22;6756;51.354;15.754;2023-03-23T13:13:45;18.60;1.00
13375;DHT22;6756;51.354;15.754;2023-03-23T13:26:16;17.50;1.00
13375;DHT22;6756;51.354;15.754;2023-03-23T13:30:22;17.60;1.00
13375;DHT22;6756;51.354;15.754;2023-03-23T13:34:29;17.60;1.00
13375;DHT22;6756;51.354;15.754;2023-03-23T13:38:31;17.50;1.00
13375;DHT22;6756;51.354;15.754;2023-03-23T13:42:32;17.40;1.00
13375;DHT22;6756;51.354;15.754;2023-03-23T13:46:35;17.30;1.90
13375;DHT22;6756;51.354;15.754;2023-03-23T13:54:51;17.60;1.00
13375;DHT22;6756;51.354;15.754;2023-03-23T13:59:05;17.50;3.60
13375;DHT22;6756;51.354;15.754;2023-03-23T14:07:11;17.20;13.90
13375;DHT22;6756;51.354;15.754;2023-03-23T14:11:25;17.10;42.30
13375;DHT22;6756;51.354;15.754;2023-03-23T14:15:44;17.00;66.30
13375;DHT22;6756;51.354;15.754;2023-03-23T14:19:52;17.20;93.90
13375;DHT22;6756;51.354;15.754;2023-03-23T14:23:53;17.40;93.40
13375;DHT22;6756;51.354;15.754;2023-03-23T14:27:57;17.40;77.20
13375;DHT22;6756;51.354;15.754;2023-03-23T14:31:59;17.20;94.50
13375;DHT22;6756;51.354;15.754;2023-03-23T14:36:00;17.00;90.40
13375;DHT22;6756;51.354;15.754;2023-03-23T14:40:01;16.70;99.90
13375;DHT22;6756;51.354;15.754;2023-03-23T14:44:08;16.50;99.90
13375;DHT22;6756;51.354;15.754;2023-03-23T14:48:15;16.50;99.90
13375;DHT22;6756;51.354;15.754;2023-03-23T14:52:17;16.70;99.90
13375;DHT22;6756;51.354;15.754;2023-03-23T14:56:20;16.90;99.90
13375;DHT22;6756;51.354;15.754;2023-03-23T15:00:30;16.80;99.90
13375;DHT22;6756;51.354;15.754;2023-03-23T15:04:32;16.60;99.90
13375;DHT22;6756;51.354;15.754;2023-03-23T15:08:34;16.60;99.90
13375;DHT22;6756;51.354;15.754;2023-03-23T15:12:35;16.60;99.90
13375;DHT22;6756;51.354;15.754;2023-03-23T15:16:36;16.80;99.90
13375;DHT22;6756;51.354;15.754;2023-03-23T15:20:49;16.90;99.90
13375;DHT22;6756;51.354;15.754;2023-03-23T15:24:51;16.90;98.50
13375;DHT22;6756;51.354;15.754;2023-03-23T15:33:10;16.90;99.30
13375;DHT22;6756;51.354;15.754;2023-03-23T15:37:23;16.90;99.90
13375;DHT22;6756;51.354;15.754;2023-03-23T15:41:31;16.90;98.00
13375;DHT22;6756;51.354;15.754;2023-03-23T15:45:35;16.80;80.90
13375;DHT22;6756;51.354;15.754;2023-03-23T15:49:36;16.60;95.50
13375;DHT22;6756;51.354;15.754;2023-03-23T15:53:37;16.30;99.90
13375;DHT22;6756;51.354;15.754;2023-03-23T15:57:38;16.00;99.90
13375;DHT22;6756;51.354;15.754;2023-03-23T16:01:40;15.90;99.90
13375;DHT22;6756;51.354;15.754;2023-03-23T16:05:42;15.70;99.90
13375;DHT22;6756;51.354;15.754;2023-03-23T16:09:43;15.50;99.90
13375;DHT22;6756;51.354;15.754;2023-03-23T16:13:45;15.50;99.90
13375;DHT22;6756;51.354;15.754;2023-03-23T16:17:46;15.40;99.90
13375;DHT22;6756;51.354;15.754;2023-03-23T16:21:46;15.30;99.90
13375;DHT22;6756;51.354;15.754;2023-03-23T16:25:48;15.20;99.90
13375;DHT22;6756;51.354;15.754;2023-03-23T16:29:49;15.10;99.90
13375;DHT22;6756;51.354;15.754;2023-03-23T16:33:50;15.00;99.90
13375;DHT22;6756;51.354;15.754;2023-03-23T16:37:52;14.90;99.90
13375;DHT22;6756;51.354;15.754;2023-03-23T16:41:54;14.80;99.90
13375;DHT22;6756;51.354;15.754;2023-03-23T16:45:56;14.70;99.90
13375;DHT22;6756;51.354;15.754;2023-03-23T16:49:56;14.60;99.90
13375;DHT22;6756;51.354;15.754;2023-03-23T16:53:57;14.60;99.90
13375;DHT22;6756;51.354;15.754;2023-03-23T16:57:58;14.50;99.90
13375;DHT22;6756;51.354;15.754;2023-03-23T17:01:59;14.40;99.90
13375;DHT22;6756;51.354;15.754;2023-03-23T17:06:03;14.30;99.90
13375;DHT22;6756;51.354;15.754;2023-03-23T17:10:06;14.30;99.90
13375;DHT22;6756;51.354;15.754;2023-03-23T17:14:07;14.20;99.90
13375;DHT22;6756;51.354;15.754;2023-03-23T17:18:07;14.10;99.90
13375;DHT22;6756;51.354;15.754;2023-03-23T17:22:08;14.10;99.90
13375;DHT22;6756;51.354;15.754;2023-03-23T17:26:09;14.10;1.00
13375;DHT22;6756;51.354;15.754;2023-03-23T17:30:10;14.10;99.90
13375;DHT22;6756;51.354;15.754;2023-03-23T17:34:11;14.10;99.90
13375;DHT22;6756;51.354;15.754;2023-03-23T17:38:12;14.10;99.90
13375;DHT22;6756;51.354;15.754;2023-03-23T17:42:13;14.00;99.90
13375;DHT22;6756;51.354;15.754;2023-03-23T17:46:14;14.00;99.90
13375;DHT22;6756;51.354;15.754;2023-03-23T17:50:15;14.00;99.90
13375;DHT22;6756;51.354;15.754;2023-03-23T17:54:17;13.90;99.90
13375;DHT22;6756;51.354;15.754;2023-03-23T17:58:18;13.90;99.90
13375;DHT22;6756;51.354;15.754;2023-03-23T18:02:19;13.80;1.00
13375;DHT22;6756;51.354;15.754;2023-03-23T18:06:19;13.80;1.00
13375;DHT22;6756;51.354;15.754;2023-03-23T18:10:20;13.80;1.00
13375;DHT22;6756;51.354;15.754;2023-03-23T18:14:21;13.70;1.00
13375;DHT22;6756;51.354;15.754;2023-03-23T18:18:24;13.70;1.00
13375;DHT22;6756;51.354;15.754;2023-03-23T18:22:25;13.70;1.00
13375;DHT22;6756;51.354;15.754;2023-03-23T18:26:26;13.60;1.00
13375;DHT22;6756;51.354;15.754;2023-03-23T18:30:27;13.60;1.00
13375;DHT22;6756;51.354;15.754;2023-03-23T18:34:28;13.50;1.00
13375;DHT22;6756;51.354;15.754;2023-03-23T18:38:31;13.50;1.00
13375;DHT22;6756;51.354;15.754;2023-03-23T18:42:32;13.50;1.00
13375;DHT22;6756;51.354;15.754;2023-03-23T18:46:33;13.40;1.00
13375;DHT22;6756;51.354;15.754;2023-03-23T18:50:36;13.40;1.00
13375;DHT22;6756;51.354;15.754;2023-03-23T18:54:37;13.30;1.00
13375;DHT22;6756;51.354;15.754;2023-03-23T18:58:39;13.20;1.00
13375;DHT22;6756;51.354;15.754;2023-03-23T19:02:41;13.10;1.00
13375;DHT22;6756;51.354;15.754;2023-03-23T19:06:41;13.00;1.00
13375;DHT22;6756;51.354;15.754;2023-03-23T19:10:42;12.80;1.00
13375;DHT22;6756;51.354;15.754;2023-03-23T19:14:43;12.60;1.00
13375;DHT22;6756;51.354;15.754;2023-03-23T19:18:44;12.30;55.20
13375;DHT22;6756;51.354;15.754;2023-03-23T19:22:46;12.20;96.40
13375;DHT22;6756;51.354;15.754;2023-03-23T19:26:47;12.00;99.90
13375;DHT22;6756;51.354;15.754;2023-03-23T19:30:53;11.90;99.90
13375;DHT22;6756;51.354;15.754;2023-03-23T19:34:54;11.80;99.90
13375;DHT22;6756;51.354;15.754;2023-03-23T19:38:55;11.60;99.90
13375;DHT22;6756;51.354;15.754;2023-03-23T19:42:57;11.50;99.90
13375;DHT22;6756;51.354;15.754;2023-03-23T19:46:58;11.50;99.90
13375;DHT22;6756;51.354;15.754;2023-03-23T19:50:59;11.40;99.90
13375;DHT22;6756;51.354;15.754;2023-03-23T19:55:00;11.30;99.90
13375;DHT22;6756;51.354;15.754;2023-03-23T19:59:01;11.30;99.90
13375;DHT22;6756;51.354;15.754;2023-03-23T20:03:02;11.40;99.90
13375;DHT22;6756;51.354;15.754;2023-03-23T20:07:04;11.50;35.50
13375;DHT22;6756;51.354;15.754;2023-03-23T20:11:11;11.50;1.00
13375;DHT22;6756;51.354;15.754;2023-03-23T20:15:12;11.60;1.00
13375;DHT22;6756;51.354;15.754;2023-03-23T20:19:13;11.60;1.00
13375;DHT22;6756;51.354;15.754;2023-03-23T20:23:14;11.60;1.00
13375;DHT22;6756;51.354;15.754;2023-03-23T20:27:16;11.50;1.00
13375;DHT22;6756;51.354;15.754;2023-03-23T20:31:20;11.50;1.00
13375;DHT22;6756;51.354;15.754;2023-03-23T20:35:21;11.40;1.00
13375;DHT22;6756;51.354;15.754;2023-03-23T20:39:23;11.30;1.00
13375;DHT22;6756;51.354;15.754;2023-03-23T20:43:24;11.20;1.00
13375;DHT22;6756;51.354;15.754;2023-03-23T20:47:28;11.10;1.00
13375;DHT22;6756;51.354;15.754;2023-03-23T20:51:31;10.90;1.00
13375;DHT22;6756;51.354;15.754;2023-03-23T20:55:32;10.80;34.00
13375;DHT22;6756;51.354;15.754;2023-03-23T20:59:34;10.70;99.90
13375;DHT22;6756;51.354;15.754;2023-03-23T21:03:37;10.60;99.90
13375;DHT22;6756;51.354;15.754;2023-03-23T21:07:38;10.40;99.90
13375;DHT22;6756;51.354;15.754;2023-03-23T21:11:40;10.30;99.90
13375;DHT22;6756;51.354;15.754;2023-03-23T21:15:42;10.20;99.90
13375;DHT22;6756;51.354;15.754;2023-03-23T21:19:42;10.10;99.90
13375;DHT22;6756;51.354;15.754;2023-03-23T21:23:44;10.00;99.90
13375;DHT22;6756;51.354;15.754;2023-03-23T21:27:51;9.90;1.00
13375;DHT22;6756;51.354;15.754;2023-03-23T21:31:53;9.80;1.00
13375;DHT22;6756;51.354;15.754;2023-03-23T21:35:54;9.70;1.00
13375;DHT22;6756;51.354;15.754;2023-03-23T21:39:55;9.70;1.00
13375;DHT22;6756;51.354;15.754;2023-03-23T21:43:56;9.60;1.00
13375;DHT22;6756;51.354;15.754;2023-03-23T21:47:58;9.50;39.70
13375;DHT22;6756;51.354;15.754;2023-03-23T21:51:59;9.40;99.90
13375;DHT22;6756;51.354;15.754;2023-03-23T21:56:03;9.30;99.90
13375;DHT22;6756;51.354;15.754;2023-03-23T22:00:06;9.30;99.90
13375;DHT22;6756;51.354;15.754;2023-03-23T22:04:08;9.20;1.00
13375;DHT22;6756;51.354;15.754;2023-03-23T22:08:09;9.20;1.00
13375;DHT22;6756;51.354;15.754;2023-03-23T22:12:13;9.20;1.00
13375;DHT22;6756;51.354;15.754;2023-03-23T22:16:17;9.20;1.00
13375;DHT22;6756;51.354;15.754;2023-03-23T22:20:18;9.10;99.90
13375;DHT22;6756;51.354;15.754;2023-03-23T22:24:21;9.10;99.90
13375;DHT22;6756;51.354;15.754;2023-03-23T22:28:23;9.20;99.90
13375;DHT22;6756;51.354;15.754;2023-03-23T22:32:25;9.40;1.00
13375;DHT22;6756;51.354;15.754;2023-03-23T22:36:28;9.70;1.00
13375;DHT22;6756;51.354;15.754;2023-03-23T22:40:30;9.80;99.90
13375;DHT22;6756;51.354;15.754;2023-03-23T22:44:31;10.00;96.00
13375;DHT22;6756;51.354;15.754;2023-03-23T22:48:32;10.20;1.00
13375;DHT22;6756;51.354;15.754;2023-03-23T22:52:33;10.30;1.00
13375;DHT22;6756;51.354;15.754;2023-03-23T22:56:36;10.30;99.90
13375;DHT22;6756;51.354;15.754;2023-03-23T23:00:38;10.50;99.90
13375;DHT22;6756;51.354;15.754;2023-03-23T23:04:39;10.60;99.90
13375;DHT22;6756;51.354;15.754;2023-03-23T23:08:40;10.80;51.30
13375;DHT22;6756;51.354;15.754;2023-03-23T23:12:41;10.90;1.00
13375;DHT22;6756;51.354;15.754;2023-03-23T23:16:42;11.10;1.00
13375;DHT22;6756;51.354;15.754;2023-03-23T23:20:50;11.10;99.90
13375;DHT22;6756;51.354;15.754;2023-03-23T23:24:51;11.00;99.90
13375;DHT22;6756;51.354;15.754;2023-03-23T23:28:52;11.00;99.90
13375;DHT22;6756;51.354;15.754;2023-03-23T23:32:53;11.10;99.90
13375;DHT22;6756;51.354;15.754;2023-03-23T23:36:54;11.10;99.90
13375;DHT22;6756;51.354;15.754;2023-03-23T23:40:58;11.20;99.90
13375;DHT22;6756;51.354;15.754;2023-03-23T23:44:59;11.10;99.90
13375;DHT22;6756;51.354;15.754;2023-03-23T23:49:00;11.00;99.90
13375;DHT22;6756;51.354;15.754;2023-03-23T23:53:01;10.90;99.90
13375;DHT22;6756;51.354;15.754;2023-03-23T23:57:03;10.80;99.90
